Time,TemperatureF,DewpointF,PressureIn,WindDirection,WindDirectionDegrees,WindSpeedMPH,WindSpeedGustMPH,Humidity,HourlyPrecipIn,Conditions,Clouds,dailyrainin,SolarRadiationWatts/m^2,SoftwareType,DateUTC
2013-08-16 10:28:00,70.0,34.0,30.16,NNW,329,2.0,4.0,27,-99.99,,,-99.99,670.000000,,2013-08-16 17:28:00,
2013-08-16 10:34:00,70.0,34.0,30.16,NNW,329,2.0,4.0,27,-99.99,,,-99.99,670.000000,,2013-08-16 17:34:00,
2013-08-16 10:40:00,-999.0,-99.9,30.15,NNW,338,2.0,5.0,20,-99.99,,,-99.99,820.000000,,2013-08-16 17:40:00,
2013-08-16 11:28:00,78.0,34.0,30.15,NNW,338,2.0,5.0,20,-99.99,,,-99.99,820.000000,,2013-08-16 18:28:00,
2013-08-16 11:40:00,83.0,32.0,30.13,NW,318,2.0,4.0,16,-99.99,,,-99.99,950.000000,,2013-08-16 18:40:00,
2013-08-16 13:40:00,-999.0,-99.9,30.10,West,280,13.0,21.0,-999,-99.99,,,-99.99,,,2013-08-16 20:40:00,
2013-08-16 16:40:00,83.0,32.0,30.07,West,265,17.0,25.0,16,-99.99,,,-99.99,620.000000,,2013-08-16 23:40:00,
2013-08-16 17:40:00,82.0,33.0,30.08,West,272,15.0,25.0,17,-99.99,,,-99.99,410.000000,,2013-08-17 00:40:00,
2013-08-16 18:21:00,82.0,33.0,30.08,West,272,15.0,25.0,17,-99.99,,,-99.99,410.000000,,2013-08-17 01:21:00,
2013-08-16 18:32:00,82.0,33.0,30.08,West,272,15.0,25.0,17,-99.99,,,-99.99,410.000000,,2013-08-17 01:32:00,
2013-08-16 18:40:00,79.0,34.0,30.07,West,271,12.0,19.0,19,-99.99,,,-99.99,200.000000,,2013-08-17 01:40:00,
2013-08-16 19:40:00,77.0,33.0,30.08,West,270,13.0,21.0,20,-99.99,,,-99.99,10.000000,,2013-08-17 02:40:00,
2013-08-16 20:21:00,77.0,33.0,30.08,West,270,13.0,21.0,20,-99.99,,,-99.99,10.000000,,2013-08-17 03:21:00,
2013-08-16 20:34:00,77.0,33.0,30.08,West,270,13.0,21.0,20,-99.99,,,-99.99,10.000000,,2013-08-17 03:34:00,
2013-08-16 20:40:00,76.0,32.0,30.10,WSW,237,7.0,14.0,20,-99.99,,,-99.99,0.000000,,2013-08-17 03:40:00,
2013-08-16 21:23:00,76.0,32.0,30.10,WSW,237,7.0,14.0,20,-99.99,,,-99.99,0.000000,,2013-08-17 04:23:00,
2013-08-16 21:32:00,76.0,32.0,30.10,WSW,237,7.0,14.0,20,-99.99,,,-99.99,0.000000,,2013-08-17 04:32:00,
2013-08-16 21:40:00,71.0,34.0,30.12,SW,231,6.0,9.0,26,-99.99,,,-99.99,0.000000,,2013-08-17 04:40:00,
2013-08-16 22:22:00,71.0,34.0,30.12,SW,231,6.0,9.0,26,-99.99,,,-99.99,0.000000,,2013-08-17 05:22:00,
2013-08-16 22:32:00,71.0,34.0,30.12,SW,231,6.0,9.0,26,-99.99,,,-99.99,0.000000,,2013-08-17 05:32:00,